Logo AVAMET
Benvolgut visitant, si us plau, ingressa Recuperar contrasenya

Inforatge Riola

Dades diàries. Acumulats / Últims 30 dies disponibles

Data Temperatura (°C) Humitat rel. (%) Pressió rel. (hPa) Vent (km/h) Precipitació
Mínima Mitjana Màxima Amplitud
tèrmica
Mínima Mitjana Màxima Mínima Mitjana Màxima Predom. Mitjana Ràfega
màxima
Total
(mm)
Índex-n
Mínima Mitjana Màxima Mínima Mitjana Màxima n
0 a 1
P0 max
mm 5'
Dades mensuals acumulades fins l'últim dia disponible
08/2019 18,7 22,7 25,8 27,0 27,7 31,9 41,7 23,0 19 73 93 1.009 1.015 1.021   4,7 42,6 0,4
Dades anuals acumulades fins l'últim dia disponible
2019 1,8 13,6 25,8 18,5 13,2 23,8 41,7 39,9 15 68 96 994 1.018 1.036   4,9 63,0 170,2
Últims 30 dies disponibles
22-08-2019 18,7     24,5     29,9 11,2 40 72 89 1.019 1.020 1.021 S 4,6 25,9 0,0
21-08-2019 21,6     25,4     28,3 6,7 54 70 84 1.019 1.020 1.021 ESE 6,0 25,9 0,0
20-08-2019 24,3     25,9     29,8 5,5 67 79 90 1.015 1.017 1.021 SSE 5,9 42,6 0,0
19-08-2019 24,6     26,9     30,5 5,9 69 82 90 1.012 1.014 1.016 S 3,7 27,8 0,0
18-08-2019 23,3     27,6     32,6 9,3 61 79 89 1.009 1.012 1.014 SSO 4,9 31,5 0,0
17-08-2019 22,4     26,9     32,8 10,4 56 79 89 1.012 1.015 1.017 SSO 3,9 29,6 0,0
16-08-2019 23,4     26,7     30,2 6,8 61 76 86 1.014 1.017 1.019 SSO 5,8 32,2 0,0
15-08-2019 21,8     26,7     31,3 9,5 52 75 89 1.015 1.017 1.019 S 4,1 29,6 0,0
14-08-2019 21,1     26,8     33,2 12,1 47 69 88 1.015 1.018 1.020 S 5,5 31,5 0,0
13-08-2019 22,1     25,1     27,7 5,6 60 71 87 1.017 1.019 1.020 ESE 5,9 31,5 0,4
12-08-2019 23,5     26,2     29,1 5,6 50 73 90 1.012 1.015 1.019 SSE 4,1 25,9 0,0
11-08-2019 25,8     28,2     32,6 6,8 62 77 89 1.011 1.013 1.015 SSO 4,6 31,5 0,0
10-08-2019 25,8     30,6     35,7 9,9 37 53 76 1.013 1.015 1.017 S 6,0 29,6 0,0
09-08-2019 21,8     32,5     41,7 19,9 19 47 90 1.010 1.012 1.013 SSO 5,2 25,9 0,0
08-08-2019 23,9     29,8     38,1 14,2 22 60 90 1.010 1.012 1.013 SSO 6,8 33,9 0,0
07-08-2019 22,9     27,9     36,8 13,9 26 75 93 1.009 1.010 1.013 S 3,1 32,2 0,0
06-08-2019 24,8     28,0     32,8 8,0 53 79 89 1.009 1.011 1.014 S 4,0 29,6 0,0
05-08-2019 23,4     26,7     30,1 6,7 67 79 90 1.012 1.014 1.016 SSE 3,6 27,8 0,0
04-08-2019 21,6     26,2     30,6 9,0 64 75 86 1.012 1.014 1.015 SSE 4,7 25,9 0,0
03-08-2019 21,6     25,8     30,1 8,5 58 76 89 1.012 1.015 1.016 S 5,2 32,2 0,0
02-08-2019 20,7     25,5     30,1 9,4 50 74 87 1.014 1.015 1.016 SSE 3,4 24,1 0,0
01-08-2019 21,3     24,9     28,3 7,0 63 77 89 1.012 1.014 1.016 SSE 3,0 20,9 0,0
31-07-2019 22,7     25,4     28,2 5,5 64 79 89 1.014 1.016 1.018 ESE 3,9 32,2 0,0
30-07-2019 22,0     25,9     28,7 6,7 65 77 87 1.010 1.014 1.016 SSE 4,9 31,5 0,0
29-07-2019 21,1     27,3     33,6 12,5 39 67 86 1.007 1.010 1.011 S 5,6 31,5 0,0
28-07-2019 20,9     26,1     30,3 9,4 34 59 85 1.008 1.009 1.011 S 6,5 38,9 0,0
27-07-2019 21,9     28,5     35,7 13,8 21 50 87 1.002 1.006 1.009 OSO 6,7 45,0 0,0
26-07-2019 22,1     26,5     30,6 8,5 61 73 84 1.008 1.010 1.013 S 3,9 24,1 0,0
25-07-2019 22,4     27,5     32,4 10,0 45 64 85 1.011 1.014 1.016 SSE 6,1 33,9 0,0
24-07-2019 21,5     30,6     33,1 11,6 35 51 81 1.014 1.015 1.017 ESE 7,7 29,6 0,0
Últims 13 mesos disponibles
07/2019 20,2 22,0 24,7 26,8 28,2 31,2 37,5 17,3 50 71 82 1.006 1.014 1.022 SSE 5,1 45,0 2,6
06/2019 13,5 17,3 22,2 22,7 21,5 27,8 34,5 21,0 41 68 80 1.009 1.015 1.022 S 4,9 45,0 0,0
05/2019 9,3 13,9 20,7 19,0 16,9 23,7 33,3 24,0 48 70 87 1.005 1.015 1.024 S 5,3 50,0 5,6
04/2019 8,8 11,4 15,7 15,6 15,0 20,4 30,4 21,6 45 71 95 1.000 1.014 1.026 O 6,0 50,0 135,2
03/2019 5,6 8,4 14,8 14,2 13,2 20,4 28,8 23,2 42 65 92 1.012 1.023 1.030 SO 4,0 40,7 24,6
02/2019 4,8 7,0 11,6 12,4 13,3 18,5 26,1 21,3 38 67 87 995 1.025 1.034 SSO 4,7 63,0 0,6
01/2019 1,8 6,8 13,3 11,4 13,2 17,3 21,3 19,5 42 62 83 1.003 1.020 1.031 OSO 4,7 53,7 1,2
12/2018 4,1 8,4 13,0 13,3 14,1 19,1 24,1 20,0 48 73 89 1.009 1.026 1.031 O 4,0 55,6 20,0
11/2018 6,8 11,8 15,6 15,3 14,8 19,1 23,8 17,0 49 72 94 1.001 1.016 1.025 2,6 55,6 268,4
10/2018 7,5 14,7 19,4 18,6 14,9 23,3 29,7 22,2 49 77 93 1.001 1.015 1.026 SO 3,3 45,0 117,4
09/2018 16,1 20,2 22,4 24,1 23,6 28,3 31,8 15,7 66 81 91 1.013 1.019 1.030 3,2 61,1 105,8
08/2018 19,8 22,9 26,9 27,0 27,4 31,5 36,3 16,5 62 74 83 1.013 1.017 1.022 4,9 46,7 28,6
07/2018 21,4 22,7 25,1 27,0 28,6 31,7 37,1 15,7 41 74 82 1.010 1.014 1.017 5,0 42,6 3,6
Tots els anys disponibles
2018 1,4 14,2 26,9 18,5 8,5 23,3 37,1 35,7 39 71 94 994 1.017 1.036 SSO 4,6 61,1 718,2
Temperatura (°C)
Humitat relativa (%)
Velocitat del vent i ràfega màxima (km/h)
Direcció del vent (°)
Pressió (hPa)
Precipitació (mm)
Nota sobre les dades: s'avisa a l'usuari de la provisionalitat i no oficialitat d'aquestes dades
Logo AVAMET blanc
Web allotjada a Sollutia
Llicència de Creative CommonsLa web d'AVAMET i els seus continguts estan subjectes a una llicència de
Reconeixement - No Comercial - Compartir igual
Properes estacions: Altea - Club Nàutic d'Altea (Soci), Ares del Maestrat (Ajuntament Soci),      - - - - -      Últimes estacions: Catadau - Urb. Lloma Molina (Inforatge), Ontinyent - El Pilar (Soci) - - -